Time;durP1;ratioP1;P1;durP2;ratioP2;P2;SDS_P1;SDS_P2;PMS_P1;PMS_P2;Temp;Humidity;BMP_temperature;BMP_pressure;BME280_temperature;BME280_humidity;BME280_pressure;Samples;Min_cycle;Max_cycle;Signal;HPM_P1;HPM_P2
2022/09/08 00:00:46;;;;;;;9.63;4.30;;;;;;;17.60;100.00;100817.72;4973529;28;20057;-72
2022/09/08 00:03:15;;;;;;;14.23;4.93;;;;;;;17.42;100.00;100828.38;4973244;28;20038;-72
2022/09/08 00:05:48;;;;;;;8.23;4.43;;;;;;;17.24;100.00;100817.44;4990793;28;20033;-71
2022/09/08 00:08:17;;;;;;;10.55;4.88;;;;;;;17.14;100.00;100819.28;4989876;28;20049;-71
2022/09/08 00:10:42;;;;;;;10.10;4.10;;;;;;;17.33;100.00;100811.19;4990488;28;20476;-72
2022/09/08 00:13:09;;;;;;;7.28;3.92;;;;;;;17.27;100.00;100805.50;4989729;28;20046;-71
2022/09/08 00:15:37;;;;;;;8.00;4.30;;;;;;;17.30;100.00;100803.38;4972988;28;21013;-72
2022/09/08 00:18:03;;;;;;;6.55;3.95;;;;;;;17.44;100.00;100806.66;4977250;28;20053;-72
2022/09/08 00:20:29;;;;;;;5.65;3.92;;;;;;;17.42;100.00;100795.16;4972537;28;20037;-71
2022/09/08 00:22:54;;;;;;;8.57;3.80;;;;;;;17.51;100.00;100791.59;4971520;28;20052;-71
2022/09/08 00:25:20;;;;;;;11.55;4.70;;;;;;;17.63;100.00;100792.31;4970186;28;20069;-72
2022/09/08 00:27:48;;;;;;;9.32;3.67;;;;;;;17.50;100.00;100792.59;4981145;28;20065;-72
2022/09/08 00:30:14;;;;;;;6.35;4.03;;;;;;;17.57;100.00;100791.00;4982941;28;20148;-71
2022/09/08 00:32:39;;;;;;;9.55;4.53;;;;;;;17.60;100.00;100788.88;4972286;28;20037;-71
2022/09/08 00:35:07;;;;;;;8.77;5.22;;;;;;;17.53;100.00;100785.09;4989396;28;20041;-71
2022/09/08 00:37:36;;;;;;;10.40;5.43;;;;;;;17.51;100.00;100781.66;4972424;28;20038;-71
2022/09/08 00:40:02;;;;;;;17.02;7.18;;;;;;;17.50;100.00;100785.34;4971689;28;20049;-72
2022/09/08 00:42:28;;;;;;;15.40;6.90;;;;;;;17.47;100.00;100790.19;4972005;28;20041;-72
2022/09/08 00:44:53;;;;;;;16.40;7.07;;;;;;;17.48;100.00;100790.06;4955534;28;20038;-71
2022/09/08 00:47:30;;;;;;;15.38;7.40;;;;;;;17.40;100.00;100808.78;4989325;28;20527;-71
2022/09/08 00:50:18;;;;;;;14.00;7.38;;;;;;;17.35;100.00;100798.41;4972790;28;20041;-72
2022/09/08 00:52:53;;;;;;;11.68;6.95;;;;;;;17.31;100.00;100796.16;4973316;28;20038;-71
2022/09/08 00:55:23;;;;;;;13.93;6.45;;;;;;;17.25;100.00;100788.63;4991488;28;21270;-71
2022/09/08 00:57:49;;;;;;;11.18;5.43;;;;;;;17.27;100.00;100773.16;4992118;28;20041;-70
2022/09/08 01:00:20;;;;;;;13.82;5.55;;;;;;;17.22;100.00;100762.84;4993066;28;20033;-72
2022/09/08 01:02:46;;;;;;;14.70;5.53;;;;;;;17.12;100.00;100772.75;4975810;28;20419;-72
2022/09/08 01:05:22;;;;;;;16.42;5.53;;;;;;;17.11;100.00;100762.09;4979180;28;20046;-72
2022/09/08 01:13:59;;;;;;;12.80;4.65;;;;;;;16.96;100.00;100749.03;4991277;28;20986;-72
2022/09/08 01:16:24;;;;;;;9.90;3.85;;;;;;;17.03;100.00;100747.50;4959791;28;20070;-72
2022/09/08 01:18:50;;;;;;;13.15;3.58;;;;;;;17.02;100.00;100750.34;4969557;28;20053;-73
2022/09/08 01:21:29;;;;;;;13.20;4.53;;;;;;;17.06;100.00;100743.66;4990190;28;20041;-72
2022/09/08 01:24:04;;;;;;;16.10;4.57;;;;;;;17.01;100.00;100738.69;4972381;28;20042;-70
2022/09/08 01:26:45;;;;;;;10.52;4.03;;;;;;;17.03;100.00;100730.50;4991049;28;20052;-72
2022/09/08 01:29:14;;;;;;;12.57;4.00;;;;;;;16.95;100.00;100736.56;4990226;28;20030;-71
2022/09/08 01:31:42;;;;;;;9.10;3.90;;;;;;;16.99;100.00;100727.22;4972744;28;20542;-71
2022/09/08 01:34:07;;;;;;;8.20;3.75;;;;;;;16.97;100.00;100729.22;4989681;28;20463;-71
2022/09/08 01:36:33;;;;;;;11.55;4.05;;;;;;;16.92;100.00;100720.72;4991603;28;20973;-71
2022/09/08 01:38:58;;;;;;;11.27;3.97;;;;;;;16.91;100.00;100718.97;4990117;28;20153;-71
2022/09/08 01:41:24;;;;;;;9.50;4.18;;;;;;;16.91;100.00;100718.13;4978301;28;20042;-72
2022/09/08 01:43:49;;;;;;;9.20;4.50;;;;;;;16.85;100.00;100716.00;4974007;28;20037;-72
2022/09/08 01:46:15;;;;;;;8.52;3.85;;;;;;;16.91;100.00;100718.13;4971797;28;20030;-71
2022/09/08 01:48:40;;;;;;;8.73;4.50;;;;;;;16.99;100.00;100713.75;4990830;28;20399;-70
2022/09/08 01:51:08;;;;;;;13.77;5.13;;;;;;;16.99;100.00;100721.84;4973017;28;20769;-71
2022/09/08 01:53:34;;;;;;;12.52;5.18;;;;;;;17.07;100.00;100724.69;4973614;28;20439;-71
2022/09/08 01:56:01;;;;;;;10.35;4.05;;;;;;;17.08;100.00;100731.75;4971698;28;20033;-71
2022/09/08 01:58:27;;;;;;;13.18;4.78;;;;;;;17.05;100.00;100733.88;4984947;28;20126;-70
2022/09/08 02:00:53;;;;;;;12.63;4.53;;;;;;;17.12;100.00;100736.84;4981843;28;20133;-71
2022/09/08 02:03:19;;;;;;;7.78;4.20;;;;;;;17.18;100.00;100744.38;4990212;28;20048;-70
2022/09/08 02:05:45;;;;;;;5.90;3.80;;;;;;;17.18;100.00;100744.38;4972660;28;20065;-71
2022/09/08 02:08:11;;;;;;;11.32;4.25;;;;;;;17.11;100.00;100752.16;4972802;28;20057;-70
2022/09/08 02:10:37;;;;;;;7.60;3.67;;;;;;;17.09;100.00;100755.03;4973010;28;20037;-71
2022/09/08 02:13:04;;;;;;;12.52;4.32;;;;;;;17.07;100.00;100745.38;4973076;28;20037;-72
2022/09/08 02:15:30;;;;;;;12.38;4.47;;;;;;;17.01;100.00;100736.00;4991057;28;20137;-72
2022/09/08 02:17:59;;;;;;;7.22;4.45;;;;;;;16.85;100.00;100726.78;4990514;28;20061;-73
2022/09/08 02:20:26;;;;;;;15.27;5.10;;;;;;;16.87;100.00;100716.72;4987263;28;20049;-72
2022/09/08 02:22:53;;;;;;;12.88;5.15;;;;;;;17.00;100.00;100711.91;4964445;28;20115;-72
2022/09/08 02:25:18;;;;;;;12.32;5.15;;;;;;;17.01;100.00;100698.28;4990397;28;20030;-72
2022/09/08 02:27:44;;;;;;;10.52;5.03;;;;;;;17.00;100.00;100695.75;4991313;28;20375;-73
2022/09/08 02:30:11;;;;;;;14.57;5.47;;;;;;;16.93;100.00;100694.63;4990787;28;20143;-71
2022/09/08 02:32:37;;;;;;;13.07;5.82;;;;;;;16.92;100.00;100693.78;4990554;28;20090;-72
2022/09/08 02:35:03;;;;;;;15.40;5.65;;;;;;;16.89;100.00;100682.41;4961251;28;20152;-71
2022/09/08 02:37:28;;;;;;;12.32;6.50;;;;;;;16.83;100.00;100684.69;4989126;28;20711;-72
2022/09/08 02:39:54;;;;;;;20.13;7.28;;;;;;;16.69;100.00;100686.91;4991497;28;20030;-71
2022/09/08 02:42:19;;;;;;;13.02;7.22;;;;;;;16.63;100.00;100677.56;4990383;28;20042;-71
2022/09/08 02:44:45;;;;;;;15.18;7.60;;;;;;;16.67;100.00;100679.00;4990618;28;20064;-71
2022/09/08 02:47:10;;;;;;;22.60;8.13;;;;;;;16.61;100.00;100676.84;4990242;28;20041;-71
2022/09/08 02:49:36;;;;;;;15.35;7.65;;;;;;;16.77;100.00;100669.09;4959776;28;20045;-71
2022/09/08 02:52:02;;;;;;;14.10;7.57;;;;;;;16.77;100.00;100662.88;4990559;28;20030;-72
2022/09/08 02:54:28;;;;;;;17.02;6.80;;;;;;;16.74;100.00;100664.00;4989815;28;20120;-71
2022/09/08 02:56:53;;;;;;;14.25;7.35;;;;;;;16.78;100.00;100668.09;4990400;28;20033;-71
2022/09/08 02:59:19;;;;;;;17.85;8.13;;;;;;;16.90;100.00;100663.41;4990257;28;20256;-71
2022/09/08 03:01:44;;;;;;;17.58;8.30;;;;;;;16.67;100.00;100656.59;4972394;28;20057;-72
2022/09/08 03:04:10;;;;;;;16.35;8.18;;;;;;;16.69;100.00;100654.59;4990679;28;20050;-72
2022/09/08 03:06:37;;;;;;;11.80;7.63;;;;;;;16.62;100.00;100640.88;4990947;28;20092;-71
2022/09/08 03:09:04;;;;;;;14.00;7.93;;;;;;;16.41;100.00;100640.97;4963795;28;20042;-71
2022/09/08 03:11:31;;;;;;;16.83;7.80;;;;;;;16.58;100.00;100642.97;4985014;28;20047;-71
2022/09/08 03:13:58;;;;;;;17.45;8.55;;;;;;;16.65;100.00;100632.50;4991043;28;20156;-71
2022/09/08 03:16:24;;;;;;;16.80;8.13;;;;;;;16.64;100.00;100641.56;4977672;28;20049;-72
2022/09/08 03:18:50;;;;;;;11.95;7.10;;;;;;;16.70;100.00;100646.38;4966906;28;20042;-71
2022/09/08 03:21:15;;;;;;;17.27;7.90;;;;;;;16.78;100.00;100640.31;4985360;28;20552;-71
2022/09/08 03:23:41;;;;;;;15.48;7.75;;;;;;;16.77;100.00;100635.94;4957246;28;20041;-71
2022/09/08 03:26:12;;;;;;;15.23;7.82;;;;;;;16.77;100.00;100636.78;4981205;28;20050;-71
2022/09/08 03:28:38;;;;;;;17.30;7.82;;;;;;;16.80;100.00;100639.19;4986228;28;20041;-71
2022/09/08 03:31:06;;;;;;;12.90;7.95;;;;;;;16.70;100.00;100646.38;4990818;28;20052;-71
2022/09/08 03:33:32;;;;;;;14.85;8.23;;;;;;;16.62;100.00;100643.56;4990951;28;20057;-72
2022/09/08 03:36:01;;;;;;;16.77;9.40;;;;;;;16.52;100.00;100643.56;4984995;28;20384;-71
2022/09/08 03:38:27;;;;;;;15.68;9.57;;;;;;;16.58;100.00;100637.59;4982333;28;20762;-72
2022/09/08 03:40:53;;;;;;;17.40;9.80;;;;;;;16.52;100.00;100638.16;4989076;28;20084;-71
2022/09/08 03:43:19;;;;;;;18.02;10.70;;;;;;;16.64;100.00;100638.88;4989011;28;20033;-72
2022/09/08 03:45:45;;;;;;;16.38;10.18;;;;;;;16.70;100.00;100632.06;4988992;28;20048;-71
2022/09/08 03:48:13;;;;;;;14.40;9.32;;;;;;;16.65;100.00;100634.34;4972267;28;20042;-71
2022/09/08 03:50:39;;;;;;;21.63;9.07;;;;;;;16.69;100.00;100635.75;4989540;28;20631;-71
2022/09/08 03:53:05;;;;;;;18.90;9.20;;;;;;;16.74;100.00;100631.69;4990530;28;20718;-71
2022/09/08 03:55:31;;;;;;;15.23;8.43;;;;;;;16.79;100.00;100624.03;4991517;28;20034;-71
2022/09/08 03:57:59;;;;;;;15.57;9.30;;;;;;;16.57;100.00;100626.97;4991074;28;20130;-71
2022/09/08 04:00:24;;;;;;;11.90;8.35;;;;;;;16.56;100.00;100623.41;4991009;28;20456;-71
2022/09/08 04:02:50;;;;;;;15.45;8.52;;;;;;;16.52;100.00;100619.31;4992599;28;20153;-71
2022/09/08 04:05:15;;;;;;;17.33;9.73;;;;;;;16.67;100.00;100617.06;4991353;28;20050;-72
2022/09/08 04:07:41;;;;;;;21.15;9.77;;;;;;;16.52;100.00;100618.47;4973599;28;20030;-71
2022/09/08 04:10:07;;;;;;;20.73;10.70;;;;;;;16.64;100.00;100620.03;4991325;28;20045;-72
2022/09/08 04:12:33;;;;;;;18.60;9.07;;;;;;;16.70;100.00;100614.06;4992476;28;20052;-72
2022/09/08 04:14:59;;;;;;;13.40;9.25;;;;;;;16.70;100.00;100624.84;4990703;28;20034;-71
2022/09/08 04:17:24;;;;;;;18.77;8.95;;;;;;;16.72;100.00;100630.97;4966230;28;20088;-71
2022/09/08 04:19:51;;;;;;;18.95;9.70;;;;;;;16.57;100.00;100643.13;4984322;28;20785;-72
2022/09/08 04:22:18;;;;;;;18.75;10.88;;;;;;;16.54;100.00;100643.41;4993259;28;20103;-71
2022/09/08 04:24:45;;;;;;;16.80;9.32;;;;;;;16.64;100.00;100643.41;4996714;28;20050;-71
2022/09/08 04:27:12;;;;;;;21.92;11.23;;;;;;;16.76;100.00;100645.00;4996657;28;20034;-70
2022/09/08 04:29:38;;;;;;;16.55;9.48;;;;;;;16.73;100.00;100648.84;4988195;28;20121;-70
2022/09/08 04:32:04;;;;;;;17.85;10.20;;;;;;;16.75;100.00;100649.53;4991122;28;20042;-73
2022/09/08 04:34:30;;;;;;;14.98;8.25;;;;;;;16.70;100.00;100645.53;4985821;28;20081;-71
2022/09/08 04:36:55;;;;;;;21.00;9.60;;;;;;;16.75;100.00;100651.38;4991366;28;20153;-71
2022/09/08 04:39:21;;;;;;;17.95;11.02;;;;;;;16.79;100.00;100647.41;4985845;28;20357;-70
2022/09/08 04:41:47;;;;;;;19.02;9.77;;;;;;;16.88;100.00;100645.72;5008012;28;20038;-71
2022/09/08 04:44:13;;;;;;;22.17;9.85;;;;;;;16.90;100.00;100657.19;5001305;28;20038;-73
2022/09/08 04:46:39;;;;;;;22.60;10.50;;;;;;;16.88;100.00;100657.34;4987866;28;20034;-72
2022/09/08 04:49:05;;;;;;;23.65;10.90;;;;;;;16.81;100.00;100681.28;4996579;28;20037;-71
2022/09/08 04:51:31;;;;;;;22.08;10.25;;;;;;;16.81;100.00;100689.34;4997017;28;20053;-71
2022/09/08 04:53:58;;;;;;;17.33;9.75;;;;;;;16.73;100.00;100694.59;4995418;28;20048;-70
2022/09/08 04:56:25;;;;;;;25.92;11.38;;;;;;;16.70;100.00;100688.63;4966254;28;20038;-71
2022/09/08 04:58:51;;;;;;;27.17;11.52;;;;;;;16.58;100.00;100687.91;4977476;28;20034;-68
2022/09/08 05:01:20;;;;;;;24.17;9.50;;;;;;;16.50;100.00;100682.34;4976292;28;20068;-69
2022/09/08 05:03:47;;;;;;;18.80;9.10;;;;;;;16.53;100.00;100695.53;4990279;28;20116;-70
2022/09/08 05:06:15;;;;;;;19.10;9.25;;;;;;;16.51;100.00;100697.50;4992985;28;20037;-70
2022/09/08 05:08:43;;;;;;;21.88;8.93;;;;;;;16.43;100.00;100700.06;4978800;28;20847;-70
2022/09/08 05:11:09;;;;;;;17.77;8.85;;;;;;;16.39;100.00;100698.63;4987268;28;20088;-70
2022/09/08 05:13:35;;;;;;;19.42;8.88;;;;;;;16.43;100.00;100706.28;4975418;28;20328;-70
2022/09/08 05:16:13;;;;;;;15.00;7.65;;;;;;;16.33;100.00;100700.03;4986517;28;20034;-70
2022/09/08 05:18:39;;;;;;;21.50;8.30;;;;;;;16.27;100.00;100719.44;4984957;28;20052;-70
2022/09/08 05:21:07;;;;;;;22.42;9.25;;;;;;;16.26;100.00;100710.47;4976201;28;20160;-70
2022/09/08 05:23:33;;;;;;;17.33;7.97;;;;;;;16.35;100.00;100707.97;4991573;28;20038;-70
2022/09/08 05:26:06;;;;;;;18.88;8.25;;;;;;;16.23;100.00;100718.84;4961940;28;20047;-70
2022/09/08 05:28:32;;;;;;;;;;;;;;;16.27;100.00;100714.06;4995318;28;20071;-69
2022/09/08 05:30:59;;;;;;;14.95;8.00;;;;;;;16.29;100.00;100709.38;4965024;28;19960;-69
2022/09/08 05:33:25;;;;;;;15.80;7.18;;;;;;;16.28;100.00;100702.28;4994579;28;20037;-69
2022/09/08 05:35:51;;;;;;;15.07;6.45;;;;;;;16.21;100.00;100693.03;4993021;28;20037;-70
2022/09/08 05:38:17;;;;;;;11.15;6.88;;;;;;;16.16;100.00;100687.22;4975333;28;20841;-69
2022/09/08 05:40:43;;;;;;;17.95;7.65;;;;;;;16.08;100.00;100685.25;4974158;28;20033;-70
2022/09/08 05:43:08;;;;;;;14.65;7.07;;;;;;;16.17;100.00;100686.25;4992259;28;20077;-70
2022/09/08 05:45:34;;;;;;;12.80;6.03;;;;;;;16.13;100.00;100672.22;4993013;28;20117;-71
2022/09/08 05:48:00;;;;;;;13.13;7.00;;;;;;;16.13;100.00;100677.59;4958117;28;20046;-71
2022/09/08 05:50:26;;;;;;;24.35;8.35;;;;;;;16.08;100.00;100674.47;4975346;28;20038;-69
2022/09/08 05:52:52;;;;;;;16.10;7.05;;;;;;;16.11;100.00;100676.03;4992319;28;20046;-70
2022/09/08 05:55:17;;;;;;;14.80;6.50;;;;;;;16.10;100.00;100687.78;4991631;28;20038;-69
2022/09/08 05:57:43;;;;;;;15.32;7.13;;;;;;;16.15;100.00;100688.22;4992830;28;20046;-69
2022/09/08 06:00:10;;;;;;;10.32;6.35;;;;;;;16.20;100.00;100686.81;4975521;28;20030;-69
2022/09/08 06:02:36;;;;;;;14.38;6.68;;;;;;;16.08;100.00;100696.00;4993777;28;20034;-69
2022/09/08 06:05:02;;;;;;;17.83;7.45;;;;;;;16.07;100.00;100696.13;4961836;28;20069;-69
2022/09/08 06:07:28;;;;;;;12.82;6.47;;;;;;;16.18;100.00;100682.56;4963474;28;20142;-69
2022/09/08 06:09:54;;;;;;;13.52;7.20;;;;;;;16.12;100.00;100691.19;4970029;28;20765;-70
2022/09/08 06:12:20;;;;;;;14.45;6.72;;;;;;;16.13;100.00;100698.28;4985624;28;20044;-70
2022/09/08 06:14:46;;;;;;;11.48;6.97;;;;;;;16.21;100.00;100699.28;4971733;28;20038;-68
2022/09/08 06:17:11;;;;;;;12.85;7.07;;;;;;;16.20;100.00;100707.50;4976919;28;20622;-70
2022/09/08 06:19:37;;;;;;;15.10;7.63;;;;;;;16.15;100.00;100713.28;4960413;28;20031;-70
2022/09/08 06:22:04;;;;;;;15.85;8.07;;;;;;;16.22;100.00;100714.47;4957238;28;20745;-70
2022/09/08 06:24:29;;;;;;;18.77;7.07;;;;;;;16.25;100.00;100711.47;4977791;28;20037;-70
2022/09/08 06:27:31;;;;;;;14.30;8.32;;;;;;;16.33;100.00;100718.88;4975141;28;20038;-70
2022/09/08 06:30:04;;;;;;;20.60;6.93;;;;;;;16.26;100.00;100723.94;4967045;28;21070;-70
2022/09/08 06:32:38;;;;;;;16.73;8.05;;;;;;;16.27;100.00;100725.66;4955531;28;20474;-70
2022/09/08 06:35:19;;;;;;;17.52;7.72;;;;;;;16.28;100.00;100721.97;4975164;28;21012;-69
2022/09/08 06:37:53;;;;;;;20.88;8.57;;;;;;;16.29;100.00;100714.75;4980336;28;20041;-70
2022/09/08 06:40:39;;;;;;;18.48;8.38;;;;;;;16.18;100.00;100725.63;4982111;28;20033;-70
2022/09/08 06:43:13;;;;;;;15.57;8.15;;;;;;;16.22;100.00;100722.53;4963669;28;20161;-70
2022/09/08 06:45:44;;;;;;;16.02;8.00;;;;;;;16.21;100.00;100726.19;4961461;28;20034;-69
2022/09/08 06:48:36;;;;;;;16.60;7.45;;;;;;;16.22;100.00;100729.75;4968678;28;20084;-71
2022/09/08 06:51:16;;;;;;;23.40;9.25;;;;;;;16.17;100.00;100732.00;4968606;28;20123;-70
2022/09/08 06:54:05;;;;;;;18.75;8.98;;;;;;;16.20;100.00;100734.41;4981250;28;20665;-69
2022/09/08 06:56:51;;;;;;;14.52;8.88;;;;;;;16.22;100.00;100740.50;4979147;28;20077;-70
2022/09/08 06:59:41;;;;;;;21.23;9.10;;;;;;;16.11;100.00;100746.81;4970781;28;20052;-70
2022/09/08 07:02:09;;;;;;;13.70;8.10;;;;;;;16.12;100.00;100742.31;4972971;28;20053;-70
2022/09/08 07:04:41;;;;;;;22.45;10.60;;;;;;;16.20;100.00;100742.47;4936029;23;20774;-69
2022/09/08 07:07:44;;;;;;;19.48;9.35;;;;;;;16.19;100.00;100738.94;4918355;28;20607;-72
2022/09/08 07:10:17;;;;;;;;;;;;;;;16.13;100.00;100741.31;4880037;28;20051;-70
2022/09/08 07:12:43;;;;;;;22.38;12.52;;;;;;;16.23;100.00;100750.28;4919290;28;19945;-69
2022/09/08 07:15:17;;;;;;;22.00;12.43;;;;;;;16.24;100.00;100742.06;4912669;28;20127;-70
2022/09/08 07:18:18;;;;;;;29.27;12.65;;;;;;;16.24;100.00;100739.38;4916140;28;20042;-69
2022/09/08 07:20:44;;;;;;;26.90;14.57;;;;;;;16.20;100.00;100735.25;4914398;28;20047;-70
2022/09/08 07:23:15;;;;;;;23.45;12.70;;;;;;;16.26;100.00;100739.22;4924183;28;20039;-69
2022/09/08 07:26:07;;;;;;;24.65;12.32;;;;;;;16.34;100.00;100731.34;4932776;28;20035;-70
2022/09/08 07:28:41;;;;;;;23.20;12.07;;;;;;;16.36;100.00;100732.03;4924387;28;20094;-69
2022/09/08 07:31:17;;;;;;;19.13;11.52;;;;;;;16.26;100.00;100734.69;4920644;28;20164;-69
2022/09/08 07:33:46;;;;;;;21.95;11.95;;;;;;;16.28;100.00;100729.19;4925368;28;20094;-71
2022/09/08 07:36:27;;;;;;;21.95;13.00;;;;;;;16.39;100.00;100739.84;4913505;28;20043;-69
2022/09/08 07:38:57;;;;;;;25.23;15.27;;;;;;;16.44;100.00;100736.75;4912395;28;20035;-71
2022/09/08 07:41:33;;;;;;;27.60;14.75;;;;;;;16.49;100.00;100739.88;4913615;28;20071;-69
2022/09/08 07:44:00;;;;;;;26.70;15.48;;;;;;;16.41;100.00;100745.94;4915992;28;20055;-71
2022/09/08 07:46:42;;;;;;;30.00;16.58;;;;;;;16.44;100.00;100744.81;4910570;28;20036;-70
2022/09/08 07:49:29;;;;;;;24.08;14.52;;;;;;;16.39;100.00;100744.38;4926101;28;20722;-70
2022/09/08 07:52:01;;;;;;;26.40;15.05;;;;;;;16.44;100.00;100734.91;4928563;28;20143;-71
2022/09/08 07:54:51;;;;;;;30.37;16.50;;;;;;;16.58;100.00;100741.75;4916187;28;20312;-70
2022/09/08 07:57:20;;;;;;;27.00;15.30;;;;;;;16.62;100.00;100750.38;4915021;28;20478;-71
2022/09/08 08:00:09;;;;;;;27.05;15.57;;;;;;;16.72;100.00;100749.47;4933050;28;20038;-70
2022/09/08 08:02:47;;;;;;;21.40;14.98;;;;;;;16.77;100.00;100746.34;4913011;28;20031;-70
2022/09/08 08:05:29;;;;;;;20.65;13.93;;;;;;;16.77;100.00;100751.75;4912955;28;20054;-71
2022/09/08 08:08:08;;;;;;;24.73;16.27;;;;;;;16.82;100.00;100750.31;4917622;28;20731;-70
2022/09/08 08:10:58;;;;;;;25.92;15.30;;;;;;;16.74;100.00;100752.00;4931188;28;20119;-71
2022/09/08 08:13:41;;;;;;;27.92;15.68;;;;;;;16.85;100.00;100759.97;4918064;28;20039;-70
2022/09/08 08:16:09;;;;;;;28.40;16.80;;;;;;;16.89;100.00;100755.16;4940027;28;20073;-72
2022/09/08 08:18:47;;;;;;;27.05;17.75;;;;;;;17.02;100.00;100753.03;4931216;28;20050;-71
2022/09/08 08:21:23;;;;;;;29.42;16.98;;;;;;;17.25;100.00;100756.28;4920495;28;20043;-70
2022/09/08 08:24:21;;;;;;;26.38;16.35;;;;;;;17.21;100.00;100758.41;4918298;28;20046;-71
2022/09/08 08:27:03;;;;;;;28.30;16.30;;;;;;;17.12;100.00;100770.06;4905802;28;20048;-70
2022/09/08 08:29:50;;;;;;;28.10;15.30;;;;;;;17.29;100.00;100757.72;4918392;28;20043;-73
2022/09/08 08:32:29;;;;;;;25.13;14.43;;;;;;;17.33;100.00;100759.13;4934661;28;20532;-70
2022/09/08 08:35:05;;;;;;;25.85;14.80;;;;;;;17.53;100.00;100757.28;4914594;28;20066;-71
2022/09/08 08:37:33;;;;;;;24.73;14.50;;;;;;;17.53;100.00;100763.50;4911221;28;20588;-70
2022/09/08 08:40:11;;;;;;;26.48;13.98;;;;;;;17.45;100.00;100765.22;4926781;28;20047;-70
2022/09/08 08:42:57;;;;;;;20.65;12.18;;;;;;;17.70;100.00;100764.59;4910808;28;20048;-70
2022/09/08 08:45:48;;;;;;;23.67;12.40;;;;;;;17.84;100.00;100772.28;4912706;28;20046;-70
2022/09/08 08:48:58;;;;;;;22.63;12.25;;;;;;;17.84;100.00;100761.50;4931045;28;20047;-71
2022/09/08 08:51:54;;;;;;;21.63;13.68;;;;;;;17.99;100.00;100763.72;4886358;28;20228;-70
2022/09/08 08:54:32;;;;;;;22.50;12.95;;;;;;;18.02;100.00;100764.28;4914955;28;20142;-70
2022/09/08 08:57:20;;;;;;;18.60;12.75;;;;;;;18.19;100.00;100767.19;4932906;28;20043;-71
2022/09/08 09:00:07;;;;;;;18.95;11.18;;;;;;;18.48;100.00;100767.91;4923527;28;20101;-70
2022/09/08 09:02:57;;;;;;;18.42;11.45;;;;;;;18.52;100.00;100768.44;4912774;28;20369;-71
2022/09/08 09:05:41;;;;;;;18.17;9.85;;;;;;;18.35;100.00;100759.31;4910562;28;20074;-70
2022/09/08 09:08:42;;;;;;;17.10;9.63;;;;;;;18.08;100.00;100768.25;4923591;28;20047;-70
2022/09/08 09:11:37;;;;;;;14.93;9.32;;;;;;;17.96;100.00;100769.41;4936064;28;20093;-71
2022/09/08 09:14:34;;;;;;;13.65;9.02;;;;;;;17.94;100.00;100772.25;4915620;28;20055;-69
2022/09/08 09:17:29;;;;;;;12.38;8.95;;;;;;;18.52;100.00;100765.75;4918389;28;20204;-71
2022/09/08 09:20:16;;;;;;;17.27;8.75;;;;;;;18.78;100.00;100761.38;4922801;28;20054;-70
2022/09/08 09:23:06;;;;;;;16.58;8.05;;;;;;;19.14;100.00;100753.28;4920132;28;20067;-71
2022/09/08 09:25:44;;;;;;;12.25;8.90;;;;;;;19.39;100.00;100757.06;4932476;28;20745;-72
2022/09/08 09:28:24;;;;;;;9.63;7.18;;;;;;;19.41;100.00;100752.31;4934064;28;20118;-71
2022/09/08 09:30:52;;;;;;;13.85;7.82;;;;;;;19.43;100.00;100750.31;4917774;28;20059;-71
2022/09/08 09:33:51;;;;;;;13.30;8.10;;;;;;;19.44;100.00;100751.19;4924848;28;20114;-70
2022/09/08 09:36:55;;;;;;;14.93;9.65;;;;;;;19.28;100.00;100747.34;4918379;28;20146;-70
2022/09/08 09:39:47;;;;;;;18.00;9.32;;;;;;;19.66;100.00;100756.94;4938667;28;20571;-71
2022/09/08 09:42:31;;;;;;;15.85;9.43;;;;;;;19.99;100.00;100749.06;4897303;28;20062;-72
2022/09/08 09:45:05;;;;;;;16.10;9.27;;;;;;;20.28;100.00;100743.28;4911497;28;20107;-70
2022/09/08 09:47:57;;;;;;;15.95;9.18;;;;;;;20.57;100.00;100752.88;4914433;28;20552;-71
2022/09/08 09:50:48;;;;;;;14.13;8.07;;;;;;;20.18;100.00;100747.94;4931656;28;20514;-71
2022/09/08 09:53:22;;;;;;;12.05;8.00;;;;;;;19.61;100.00;100751.16;4937075;28;20105;-70
2022/09/08 09:56:06;;;;;;;16.73;9.90;;;;;;;19.97;100.00;100751.03;4919702;28;20043;-70
2022/09/08 09:59:12;;;;;;;14.80;9.90;;;;;;;20.40;100.00;100747.38;4920234;28;20038;-70
2022/09/08 10:01:54;;;;;;;14.35;9.93;;;;;;;20.25;100.00;100737.31;4907963;28;20082;-71
2022/09/08 10:04:43;;;;;;;14.50;10.05;;;;;;;20.39;100.00;100739.44;4915699;28;20075;-71
2022/09/08 10:07:23;;;;;;;15.82;9.68;;;;;;;20.71;100.00;100737.84;4923359;28;20475;-70
2022/09/08 10:10:06;;;;;;;14.20;9.27;;;;;;;20.97;100.00;100733.16;4919503;28;20036;-69
2022/09/08 10:13:07;;;;;;;13.15;9.30;;;;;;;21.19;100.00;100723.53;4917574;28;20040;-71
2022/09/08 10:16:23;;;;;;;13.88;7.70;;;;;;;21.28;100.00;100717.06;4933646;28;20315;-71
2022/09/08 10:19:04;;;;;;;13.50;7.20;;;;;;;22.12;100.00;100713.06;4921369;28;20062;-72
2022/09/08 10:21:49;;;;;;;12.07;6.65;;;;;;;21.55;100.00;100717.78;4922981;28;20047;-70
2022/09/08 10:24:57;;;;;;;14.02;8.38;;;;;;;21.88;100.00;100711.25;4917074;28;20878;-70
2022/09/08 10:27:41;;;;;;;10.13;7.15;;;;;;;21.49;100.00;100707.59;4917718;28;20044;-71
2022/09/08 10:30:38;;;;;;;9.52;5.78;;;;;;;21.35;100.00;100709.16;4915539;28;20593;-71
2022/09/08 10:33:34;;;;;;;9.13;4.40;;;;;;;21.88;97.42;100703.09;4927413;28;20119;-71
2022/09/08 10:36:12;;;;;;;5.95;3.25;;;;;;;22.74;86.16;100701.38;4915481;28;21116;-70
2022/09/08 10:38:59;;;;;;;6.72;2.85;;;;;;;22.79;83.24;100692.66;4925034;28;20114;-70
2022/09/08 10:41:49;;;;;;;4.97;2.90;;;;;;;23.52;86.50;100703.84;4915799;28;20047;-71
2022/09/08 10:44:39;;;;;;;8.73;3.38;;;;;;;23.05;84.50;100705.97;4930198;28;20044;-71
2022/09/08 10:47:36;;;;;;;4.60;2.85;;;;;;;22.45;83.62;100704.78;4934202;28;20829;-72
2022/09/08 10:50:11;;;;;;;6.35;3.25;;;;;;;22.51;90.53;100697.78;4917511;28;20074;-73
2022/09/08 10:53:20;;;;;;;4.68;3.22;;;;;;;22.33;86.53;100698.88;4928236;28;20098;-72
2022/09/08 10:55:57;;;;;;;7.43;3.42;;;;;;;22.29;84.86;100705.72;4923914;28;20031;-70
2022/09/08 10:59:00;;;;;;;6.45;3.58;;;;;;;22.84;82.60;100699.28;4920124;28;20035;-72
2022/09/08 11:01:48;;;;;;;3.95;2.92;;;;;;;23.24;81.92;100697.28;4929729;28;20079;-72
2022/09/08 11:04:51;;;;;;;3.38;2.70;;;;;;;23.82;80.46;100697.63;4924415;28;20043;-72
2022/09/08 11:07:35;;;;;;;5.05;2.80;;;;;;;23.87;82.88;100700.63;4915004;28;20043;-73
2022/09/08 11:10:21;;;;;;;3.63;2.53;;;;;;;23.24;79.21;100700.88;4925480;28;20054;-73
2022/09/08 11:13:08;;;;;;;5.82;2.80;;;;;;;21.94;83.20;100710.56;4914200;28;20075;-71
2022/09/08 11:15:54;;;;;;;6.25;3.13;;;;;;;22.06;85.03;100712.91;4925185;28;20047;-72
2022/09/08 11:18:28;;;;;;;5.45;3.17;;;;;;;22.79;84.13;100711.69;4919092;28;20360;-71
2022/09/08 11:21:03;;;;;;;5.90;2.70;;;;;;;23.48;80.43;100709.81;4925658;28;20047;-72
2022/09/08 11:23:52;;;;;;;3.70;2.30;;;;;;;24.12;78.63;100702.03;4916979;28;20162;-72
2022/09/08 11:26:44;;;;;;;8.07;2.10;;;;;;;24.01;77.03;100697.91;4921349;28;20223;-72
2022/09/08 11:29:15;;;;;;;5.15;2.00;;;;;;;23.50;76.64;100703.19;4931283;28;20560;-71
2022/09/08 11:32:46;;;;;;;7.85;3.03;;;;;;;24.01;75.67;100705.22;4912688;28;20035;-73
2022/09/08 11:35:30;;;;;;;7.82;2.17;;;;;;;23.34;73.77;100699.75;4812098;29;20707;-72
2022/09/08 11:38:13;;;;;;;3.50;1.83;;;;;;;22.96;74.27;100695.13;4796200;29;20546;-71
2022/09/08 11:41:09;;;;;;;8.30;1.88;;;;;;;22.66;75.42;100698.72;4811004;29;20056;-72
2022/09/08 11:43:48;;;;;;;4.78;1.95;;;;;;;22.78;78.97;100693.69;4809785;29;20213;-74
2022/09/08 11:46:42;;;;;;;4.70;1.88;;;;;;;23.41;70.92;100698.00;4795951;29;20544;-74
2022/09/08 11:49:11;;;;;;;7.30;1.48;;;;;;;24.17;75.64;100691.41;4783932;29;20050;-73